sensor_id;sensor_type;location;lat;lon;timestamp;P1;durP1;ratioP1;P2;durP2;ratioP2
8066;SDS011;4076;48.076;9.118;2022-10-28T00:00:40;7.23;;;3.70;;
8066;SDS011;4076;48.076;9.118;2022-10-28T00:03:06;7.27;;;5.60;;
8066;SDS011;4076;48.076;9.118;2022-10-28T00:05:34;9.97;;;6.33;;
8066;SDS011;4076;48.076;9.118;2022-10-28T00:08:00;7.17;;;4.80;;
8066;SDS011;4076;48.076;9.118;2022-10-28T00:10:25;9.63;;;4.20;;
8066;SDS011;4076;48.076;9.118;2022-10-28T00:12:51;5.27;;;4.00;;
8066;SDS011;4076;48.076;9.118;2022-10-28T00:15:17;7.73;;;3.83;;
8066;SDS011;4076;48.076;9.118;2022-10-28T00:17:42;4.50;;;2.80;;
8066;SDS011;4076;48.076;9.118;2022-10-28T00:20:08;5.67;;;3.60;;
8066;SDS011;4076;48.076;9.118;2022-10-28T00:22:34;3.80;;;2.90;;
8066;SDS011;4076;48.076;9.118;2022-10-28T00:24:59;9.43;;;4.90;;
8066;SDS011;4076;48.076;9.118;2022-10-28T00:27:25;6.00;;;4.67;;
8066;SDS011;4076;48.076;9.118;2022-10-28T00:29:50;6.03;;;3.50;;
8066;SDS011;4076;48.076;9.118;2022-10-28T00:32:16;4.40;;;3.50;;
8066;SDS011;4076;48.076;9.118;2022-10-28T00:34:42;5.30;;;3.80;;
8066;SDS011;4076;48.076;9.118;2022-10-28T00:37:07;8.10;;;4.50;;
8066;SDS011;4076;48.076;9.118;2022-10-28T00:39:33;4.63;;;3.30;;
8066;SDS011;4076;48.076;9.118;2022-10-28T00:41:59;4.77;;;3.67;;
8066;SDS011;4076;48.076;9.118;2022-10-28T00:49:53;8.67;;;4.03;;
8066;SDS011;4076;48.076;9.118;2022-10-28T00:52:24;4.97;;;3.83;;
8066;SDS011;4076;48.076;9.118;2022-10-28T00:54:53;3.33;;;2.50;;
8066;SDS011;4076;48.076;9.118;2022-10-28T00:57:21;6.10;;;4.13;;
8066;SDS011;4076;48.076;9.118;2022-10-28T00:59:52;13.63;;;5.23;;
8066;SDS011;4076;48.076;9.118;2022-10-28T01:02:18;7.37;;;3.77;;
8066;SDS011;4076;48.076;9.118;2022-10-28T01:04:44;6.23;;;3.60;;
8066;SDS011;4076;48.076;9.118;2022-10-28T01:07:11;6.30;;;3.83;;
8066;SDS011;4076;48.076;9.118;2022-10-28T01:09:38;6.30;;;3.23;;
8066;SDS011;4076;48.076;9.118;2022-10-28T01:17:31;5.53;;;3.17;;
8066;SDS011;4076;48.076;9.118;2022-10-28T01:34:30;9.20;;;5.77;;
8066;SDS011;4076;48.076;9.118;2022-10-28T01:39:48;10.40;;;4.73;;
8066;SDS011;4076;48.076;9.118;2022-10-28T01:45:13;8.63;;;4.20;;
8066;SDS011;4076;48.076;9.118;2022-10-28T01:47:55;6.13;;;4.37;;
8066;SDS011;4076;48.076;9.118;2022-10-28T01:50:23;6.87;;;3.03;;
8066;SDS011;4076;48.076;9.118;2022-10-28T01:52:54;5.87;;;4.03;;
8066;SDS011;4076;48.076;9.118;2022-10-28T01:55:26;4.13;;;3.00;;
8066;SDS011;4076;48.076;9.118;2022-10-28T01:57:57;4.00;;;2.53;;
8066;SDS011;4076;48.076;9.118;2022-10-28T02:00:24;5.57;;;3.40;;
8066;SDS011;4076;48.076;9.118;2022-10-28T02:02:50;5.27;;;3.40;;
8066;SDS011;4076;48.076;9.118;2022-10-28T02:13:25;7.83;;;3.80;;
8066;SDS011;4076;48.076;9.118;2022-10-28T02:19:08;6.33;;;4.10;;
8066;SDS011;4076;48.076;9.118;2022-10-28T02:27:06;4.93;;;4.10;;
8066;SDS011;4076;48.076;9.118;2022-10-28T02:32:39;8.47;;;3.83;;
8066;SDS011;4076;48.076;9.118;2022-10-28T02:35:11;4.30;;;3.43;;
8066;SDS011;4076;48.076;9.118;2022-10-28T02:37:41;6.50;;;3.80;;
8066;SDS011;4076;48.076;9.118;2022-10-28T02:40:11;6.70;;;4.50;;
8066;SDS011;4076;48.076;9.118;2022-10-28T02:42:46;7.53;;;5.30;;
8066;SDS011;4076;48.076;9.118;2022-10-28T02:45:17;5.33;;;3.93;;
8066;SDS011;4076;48.076;9.118;2022-10-28T02:47:49;11.80;;;6.10;;
8066;SDS011;4076;48.076;9.118;2022-10-28T02:50:19;6.50;;;4.53;;
8066;SDS011;4076;48.076;9.118;2022-10-28T02:52:49;6.03;;;3.20;;
8066;SDS011;4076;48.076;9.118;2022-10-28T02:55:18;7.40;;;4.03;;
8066;SDS011;4076;48.076;9.118;2022-10-28T02:57:46;5.23;;;3.63;;
8066;SDS011;4076;48.076;9.118;2022-10-28T03:00:18;4.70;;;3.80;;
8066;SDS011;4076;48.076;9.118;2022-10-28T03:02:46;6.30;;;3.60;;
8066;SDS011;4076;48.076;9.118;2022-10-28T03:05:12;6.50;;;3.87;;
8066;SDS011;4076;48.076;9.118;2022-10-28T03:07:38;5.47;;;4.10;;
8066;SDS011;4076;48.076;9.118;2022-10-28T03:10:04;4.60;;;3.37;;
8066;SDS011;4076;48.076;9.118;2022-10-28T03:12:30;3.87;;;2.70;;
8066;SDS011;4076;48.076;9.118;2022-10-28T03:14:56;6.43;;;5.43;;
8066;SDS011;4076;48.076;9.118;2022-10-28T03:17:21;3.90;;;2.67;;
8066;SDS011;4076;48.076;9.118;2022-10-28T03:19:47;5.23;;;2.80;;
8066;SDS011;4076;48.076;9.118;2022-10-28T03:22:13;4.87;;;3.57;;
8066;SDS011;4076;48.076;9.118;2022-10-28T03:24:38;5.87;;;4.67;;
8066;SDS011;4076;48.076;9.118;2022-10-28T03:27:04;5.47;;;3.90;;
8066;SDS011;4076;48.076;9.118;2022-10-28T03:29:29;3.93;;;3.27;;
8066;SDS011;4076;48.076;9.118;2022-10-28T03:31:55;5.00;;;3.17;;
8066;SDS011;4076;48.076;9.118;2022-10-28T03:34:20;5.50;;;3.97;;
8066;SDS011;4076;48.076;9.118;2022-10-28T03:36:46;3.57;;;3.10;;
8066;SDS011;4076;48.076;9.118;2022-10-28T03:39:12;3.53;;;2.60;;
8066;SDS011;4076;48.076;9.118;2022-10-28T03:41:37;4.03;;;3.20;;
8066;SDS011;4076;48.076;9.118;2022-10-28T03:44:03;4.47;;;3.30;;
8066;SDS011;4076;48.076;9.118;2022-10-28T03:46:28;4.03;;;2.73;;
8066;SDS011;4076;48.076;9.118;2022-10-28T03:48:54;5.10;;;3.23;;
8066;SDS011;4076;48.076;9.118;2022-10-28T03:51:19;7.03;;;4.77;;
8066;SDS011;4076;48.076;9.118;2022-10-28T03:53:45;5.57;;;3.63;;
8066;SDS011;4076;48.076;9.118;2022-10-28T03:56:11;4.37;;;3.93;;
8066;SDS011;4076;48.076;9.118;2022-10-28T03:58:36;6.80;;;4.60;;
8066;SDS011;4076;48.076;9.118;2022-10-28T04:01:02;4.90;;;3.90;;
8066;SDS011;4076;48.076;9.118;2022-10-28T04:03:28;6.80;;;4.33;;
8066;SDS011;4076;48.076;9.118;2022-10-28T04:05:53;5.40;;;3.80;;
8066;SDS011;4076;48.076;9.118;2022-10-28T04:08:19;4.70;;;3.23;;
8066;SDS011;4076;48.076;9.118;2022-10-28T04:10:46;7.80;;;4.50;;
8066;SDS011;4076;48.076;9.118;2022-10-28T04:13:12;5.67;;;4.60;;
8066;SDS011;4076;48.076;9.118;2022-10-28T04:15:38;5.90;;;4.30;;
8066;SDS011;4076;48.076;9.118;2022-10-28T04:18:04;8.00;;;5.83;;
8066;SDS011;4076;48.076;9.118;2022-10-28T04:20:30;6.77;;;4.60;;
8066;SDS011;4076;48.076;9.118;2022-10-28T04:22:55;7.17;;;2.93;;
8066;SDS011;4076;48.076;9.118;2022-10-28T04:25:22;9.47;;;3.93;;
8066;SDS011;4076;48.076;9.118;2022-10-28T04:27:49;7.37;;;3.77;;
8066;SDS011;4076;48.076;9.118;2022-10-28T04:30:15;6.50;;;4.40;;
8066;SDS011;4076;48.076;9.118;2022-10-28T04:32:41;4.10;;;3.37;;
8066;SDS011;4076;48.076;9.118;2022-10-28T04:35:08;6.70;;;4.23;;
8066;SDS011;4076;48.076;9.118;2022-10-28T04:37:34;7.30;;;3.63;;
8066;SDS011;4076;48.076;9.118;2022-10-28T04:40:00;4.33;;;3.20;;
8066;SDS011;4076;48.076;9.118;2022-10-28T04:42:26;4.83;;;3.03;;
8066;SDS011;4076;48.076;9.118;2022-10-28T04:44:55;4.47;;;3.23;;
8066;SDS011;4076;48.076;9.118;2022-10-28T04:47:20;5.03;;;3.30;;
8066;SDS011;4076;48.076;9.118;2022-10-28T04:49:46;6.60;;;3.33;;
8066;SDS011;4076;48.076;9.118;2022-10-28T04:52:11;4.07;;;2.50;;
8066;SDS011;4076;48.076;9.118;2022-10-28T04:54:37;6.40;;;4.77;;
8066;SDS011;4076;48.076;9.118;2022-10-28T04:57:02;3.50;;;2.97;;
8066;SDS011;4076;48.076;9.118;2022-10-28T04:59:28;4.90;;;3.10;;
8066;SDS011;4076;48.076;9.118;2022-10-28T05:01:54;4.17;;;3.77;;
8066;SDS011;4076;48.076;9.118;2022-10-28T05:04:19;7.50;;;3.83;;
8066;SDS011;4076;48.076;9.118;2022-10-28T05:06:45;6.87;;;4.60;;
8066;SDS011;4076;48.076;9.118;2022-10-28T05:09:11;9.13;;;7.10;;
8066;SDS011;4076;48.076;9.118;2022-10-28T05:11:37;13.10;;;7.33;;
8066;SDS011;4076;48.076;9.118;2022-10-28T05:14:03;8.67;;;6.27;;
8066;SDS011;4076;48.076;9.118;2022-10-28T05:16:28;11.37;;;9.20;;
8066;SDS011;4076;48.076;9.118;2022-10-28T05:18:54;9.87;;;6.73;;
8066;SDS011;4076;48.076;9.118;2022-10-28T05:21:21;7.43;;;6.27;;
8066;SDS011;4076;48.076;9.118;2022-10-28T05:23:46;6.30;;;4.43;;
8066;SDS011;4076;48.076;9.118;2022-10-28T05:26:12;5.20;;;3.83;;
8066;SDS011;4076;48.076;9.118;2022-10-28T05:28:38;5.63;;;4.73;;
8066;SDS011;4076;48.076;9.118;2022-10-28T05:31:03;5.53;;;3.57;;
8066;SDS011;4076;48.076;9.118;2022-10-28T05:33:29;9.00;;;5.57;;
8066;SDS011;4076;48.076;9.118;2022-10-28T05:35:57;6.57;;;5.93;;
8066;SDS011;4076;48.076;9.118;2022-10-28T05:38:22;9.07;;;6.00;;
8066;SDS011;4076;48.076;9.118;2022-10-28T05:40:48;9.13;;;6.10;;
8066;SDS011;4076;48.076;9.118;2022-10-28T05:43:14;7.10;;;5.90;;
8066;SDS011;4076;48.076;9.118;2022-10-28T05:45:39;10.57;;;5.97;;
8066;SDS011;4076;48.076;9.118;2022-10-28T05:48:05;6.93;;;4.70;;
8066;SDS011;4076;48.076;9.118;2022-10-28T05:50:31;5.57;;;4.40;;
8066;SDS011;4076;48.076;9.118;2022-10-28T05:52:56;6.93;;;5.93;;
8066;SDS011;4076;48.076;9.118;2022-10-28T05:55:23;8.20;;;6.17;;
8066;SDS011;4076;48.076;9.118;2022-10-28T05:57:51;9.37;;;8.43;;
8066;SDS011;4076;48.076;9.118;2022-10-28T06:00:18;14.30;;;8.70;;
8066;SDS011;4076;48.076;9.118;2022-10-28T06:02:45;16.40;;;9.00;;
8066;SDS011;4076;48.076;9.118;2022-10-28T06:05:11;18.77;;;12.20;;
8066;SDS011;4076;48.076;9.118;2022-10-28T06:07:37;18.63;;;10.33;;
8066;SDS011;4076;48.076;9.118;2022-10-28T06:10:04;11.30;;;7.93;;
8066;SDS011;4076;48.076;9.118;2022-10-28T06:12:31;6.57;;;4.90;;
8066;SDS011;4076;48.076;9.118;2022-10-28T06:14:57;8.27;;;4.80;;
8066;SDS011;4076;48.076;9.118;2022-10-28T06:17:23;5.50;;;4.17;;
8066;SDS011;4076;48.076;9.118;2022-10-28T06:19:49;4.50;;;3.60;;
8066;SDS011;4076;48.076;9.118;2022-10-28T06:22:14;6.30;;;4.23;;
8066;SDS011;4076;48.076;9.118;2022-10-28T06:24:40;6.43;;;4.20;;
8066;SDS011;4076;48.076;9.118;2022-10-28T06:27:06;7.37;;;5.30;;
8066;SDS011;4076;48.076;9.118;2022-10-28T06:29:32;7.73;;;5.50;;
8066;SDS011;4076;48.076;9.118;2022-10-28T06:31:58;6.77;;;5.20;;
8066;SDS011;4076;48.076;9.118;2022-10-28T06:34:24;10.27;;;5.60;;
8066;SDS011;4076;48.076;9.118;2022-10-28T06:36:49;10.33;;;6.90;;
8066;SDS011;4076;48.076;9.118;2022-10-28T06:39:15;8.40;;;3.83;;
8066;SDS011;4076;48.076;9.118;2022-10-28T06:41:41;7.13;;;5.10;;
8066;SDS011;4076;48.076;9.118;2022-10-28T06:44:06;6.57;;;3.77;;
8066;SDS011;4076;48.076;9.118;2022-10-28T06:46:32;6.63;;;5.60;;
8066;SDS011;4076;48.076;9.118;2022-10-28T06:48:58;6.63;;;5.00;;
8066;SDS011;4076;48.076;9.118;2022-10-28T06:51:27;9.00;;;6.53;;
8066;SDS011;4076;48.076;9.118;2022-10-28T06:53:53;8.03;;;5.00;;
8066;SDS011;4076;48.076;9.118;2022-10-28T06:56:19;5.53;;;4.60;;
8066;SDS011;4076;48.076;9.118;2022-10-28T06:58:51;7.73;;;5.57;;
8066;SDS011;4076;48.076;9.118;2022-10-28T07:01:18;12.60;;;7.83;;
8066;SDS011;4076;48.076;9.118;2022-10-28T07:03:44;7.40;;;6.33;;
8066;SDS011;4076;48.076;9.118;2022-10-28T07:06:10;6.10;;;5.13;;
8066;SDS011;4076;48.076;9.118;2022-10-28T07:08:35;13.03;;;5.70;;
8066;SDS011;4076;48.076;9.118;2022-10-28T07:11:01;7.73;;;6.93;;
8066;SDS011;4076;48.076;9.118;2022-10-28T07:13:26;8.40;;;6.43;;
8066;SDS011;4076;48.076;9.118;2022-10-28T07:15:56;6.50;;;5.13;;
8066;SDS011;4076;48.076;9.118;2022-10-28T07:18:24;7.33;;;5.90;;
8066;SDS011;4076;48.076;9.118;2022-10-28T07:20:50;8.60;;;6.20;;
8066;SDS011;4076;48.076;9.118;2022-10-28T07:23:16;7.20;;;4.73;;
8066;SDS011;4076;48.076;9.118;2022-10-28T07:25:42;6.60;;;5.20;;
8066;SDS011;4076;48.076;9.118;2022-10-28T07:28:08;5.60;;;4.60;;
8066;SDS011;4076;48.076;9.118;2022-10-28T07:30:34;8.30;;;6.00;;
8066;SDS011;4076;48.076;9.118;2022-10-28T07:33:00;10.23;;;6.40;;
8066;SDS011;4076;48.076;9.118;2022-10-28T07:35:26;6.73;;;4.57;;
8066;SDS011;4076;48.076;9.118;2022-10-28T07:37:52;11.13;;;6.23;;
8066;SDS011;4076;48.076;9.118;2022-10-28T07:40:18;7.83;;;6.93;;
8066;SDS011;4076;48.076;9.118;2022-10-28T07:42:45;5.77;;;5.00;;
8066;SDS011;4076;48.076;9.118;2022-10-28T07:45:10;5.33;;;4.40;;
8066;SDS011;4076;48.076;9.118;2022-10-28T07:47:36;4.83;;;4.20;;
8066;SDS011;4076;48.076;9.118;2022-10-28T07:50:02;6.90;;;5.43;;
8066;SDS011;4076;48.076;9.118;2022-10-28T07:52:29;6.90;;;5.27;;
8066;SDS011;4076;48.076;9.118;2022-10-28T07:54:55;5.70;;;4.40;;
8066;SDS011;4076;48.076;9.118;2022-10-28T07:57:20;7.30;;;5.60;;
8066;SDS011;4076;48.076;9.118;2022-10-28T07:59:46;9.07;;;6.07;;
8066;SDS011;4076;48.076;9.118;2022-10-28T08:02:23;7.97;;;6.93;;
8066;SDS011;4076;48.076;9.118;2022-10-28T08:04:49;7.27;;;5.13;;
8066;SDS011;4076;48.076;9.118;2022-10-28T08:07:15;10.87;;;8.70;;
8066;SDS011;4076;48.076;9.118;2022-10-28T08:09:41;9.07;;;6.60;;
8066;SDS011;4076;48.076;9.118;2022-10-28T08:12:07;9.30;;;6.90;;
8066;SDS011;4076;48.076;9.118;2022-10-28T08:14:36;12.40;;;9.00;;
8066;SDS011;4076;48.076;9.118;2022-10-28T08:17:02;8.87;;;6.70;;
8066;SDS011;4076;48.076;9.118;2022-10-28T08:19:28;7.97;;;5.77;;
8066;SDS011;4076;48.076;9.118;2022-10-28T08:21:53;6.37;;;5.77;;
8066;SDS011;4076;48.076;9.118;2022-10-28T08:24:19;11.30;;;8.27;;
8066;SDS011;4076;48.076;9.118;2022-10-28T08:26:44;8.20;;;7.40;;
8066;SDS011;4076;48.076;9.118;2022-10-28T08:29:10;5.90;;;5.20;;
8066;SDS011;4076;48.076;9.118;2022-10-28T08:31:36;7.07;;;4.97;;
8066;SDS011;4076;48.076;9.118;2022-10-28T08:34:02;6.00;;;5.00;;
8066;SDS011;4076;48.076;9.118;2022-10-28T08:36:28;6.00;;;4.03;;
8066;SDS011;4076;48.076;9.118;2022-10-28T08:38:54;10.70;;;4.60;;
8066;SDS011;4076;48.076;9.118;2022-10-28T08:49:56;4.73;;;3.67;;
8066;SDS011;4076;48.076;9.118;2022-10-28T08:55:24;5.67;;;3.70;;
8066;SDS011;4076;48.076;9.118;2022-10-28T08:57:58;7.00;;;4.27;;
8066;SDS011;4076;48.076;9.118;2022-10-28T09:00:33;6.60;;;4.57;;
8066;SDS011;4076;48.076;9.118;2022-10-28T09:05:53;14.47;;;7.93;;
8066;SDS011;4076;48.076;9.118;2022-10-28T09:08:26;9.70;;;7.83;;
8066;SDS011;4076;48.076;9.118;2022-10-28T09:24:50;8.33;;;6.03;;
8066;SDS011;4076;48.076;9.118;2022-10-28T09:35:45;7.77;;;6.50;;
8066;SDS011;4076;48.076;9.118;2022-10-28T09:38:19;8.87;;;5.83;;
8066;SDS011;4076;48.076;9.118;2022-10-28T09:41:03;6.90;;;6.00;;
8066;SDS011;4076;48.076;9.118;2022-10-28T09:43:44;7.07;;;4.80;;
8066;SDS011;4076;48.076;9.118;2022-10-28T09:46:31;8.27;;;5.90;;
8066;SDS011;4076;48.076;9.118;2022-10-28T09:48:58;5.33;;;3.50;;
8066;SDS011;4076;48.076;9.118;2022-10-28T09:54:02;5.70;;;4.10;;
8066;SDS011;4076;48.076;9.118;2022-10-28T09:56:28;6.80;;;5.43;;
8066;SDS011;4076;48.076;9.118;2022-10-28T09:58:55;4.73;;;3.83;;
8066;SDS011;4076;48.076;9.118;2022-10-28T10:01:27;9.67;;;4.07;;
8066;SDS011;4076;48.076;9.118;2022-10-28T10:03:57;6.33;;;3.13;;
8066;SDS011;4076;48.076;9.118;2022-10-28T10:09:02;7.23;;;3.70;;
8066;SDS011;4076;48.076;9.118;2022-10-28T10:11:44;4.30;;;3.37;;
8066;SDS011;4076;48.076;9.118;2022-10-28T10:14:14;6.00;;;3.97;;
8066;SDS011;4076;48.076;9.118;2022-10-28T10:19:16;7.10;;;4.70;;
8066;SDS011;4076;48.076;9.118;2022-10-28T10:26:49;5.27;;;4.77;;
8066;SDS011;4076;48.076;9.118;2022-10-28T10:29:16;4.33;;;3.70;;
8066;SDS011;4076;48.076;9.118;2022-10-28T10:31:42;5.33;;;4.30;;
8066;SDS011;4076;48.076;9.118;2022-10-28T10:34:22;4.37;;;3.57;;
8066;SDS011;4076;48.076;9.118;2022-10-28T10:36:50;5.70;;;4.90;;
8066;SDS011;4076;48.076;9.118;2022-10-28T10:39:25;4.83;;;3.90;;
8066;SDS011;4076;48.076;9.118;2022-10-28T10:41:58;6.10;;;4.60;;
8066;SDS011;4076;48.076;9.118;2022-10-28T10:49:28;9.00;;;5.73;;
8066;SDS011;4076;48.076;9.118;2022-10-28T10:51:54;5.50;;;4.30;;
8066;SDS011;4076;48.076;9.118;2022-10-28T10:54:22;5.13;;;3.70;;
8066;SDS011;4076;48.076;9.118;2022-10-28T10:56:50;9.03;;;5.77;;
8066;SDS011;4076;48.076;9.118;2022-10-28T10:59:28;11.43;;;6.77;;
8066;SDS011;4076;48.076;9.118;2022-10-28T11:01:55;6.87;;;4.67;;
8066;SDS011;4076;48.076;9.118;2022-10-28T11:04:22;6.73;;;4.60;;
8066;SDS011;4076;48.076;9.118;2022-10-28T11:06:54;8.37;;;5.40;;
8066;SDS011;4076;48.076;9.118;2022-10-28T11:11:57;5.27;;;3.90;;
8066;SDS011;4076;48.076;9.118;2022-10-28T11:14:26;4.80;;;4.10;;
8066;SDS011;4076;48.076;9.118;2022-10-28T11:16:55;5.23;;;3.87;;
8066;SDS011;4076;48.076;9.118;2022-10-28T11:25:38;6.40;;;3.20;;
8066;SDS011;4076;48.076;9.118;2022-10-28T11:30:19;6.23;;;4.30;;
8066;SDS011;4076;48.076;9.118;2022-10-28T11:43:49;9.23;;;4.07;;
8066;SDS011;4076;48.076;9.118;2022-10-28T11:51:49;6.30;;;5.60;;
8066;SDS011;4076;48.076;9.118;2022-10-28T11:56:58;8.80;;;4.30;;
8066;SDS011;4076;48.076;9.118;2022-10-28T11:59:47;5.70;;;4.37;;
8066;SDS011;4076;48.076;9.118;2022-10-28T12:02:35;7.67;;;4.37;;
8066;SDS011;4076;48.076;9.118;2022-10-28T12:05:46;6.07;;;3.50;;
8066;SDS011;4076;48.076;9.118;2022-10-28T12:18:50;8.60;;;4.83;;
8066;SDS011;4076;48.076;9.118;2022-10-28T12:21:32;9.83;;;6.00;;
8066;SDS011;4076;48.076;9.118;2022-10-28T12:24:33;9.97;;;3.90;;
8066;SDS011;4076;48.076;9.118;2022-10-28T12:27:02;4.93;;;3.43;;
8066;SDS011;4076;48.076;9.118;2022-10-28T12:29:37;4.83;;;2.67;;
8066;SDS011;4076;48.076;9.118;2022-10-28T12:32:12;10.27;;;3.10;;
8066;SDS011;4076;48.076;9.118;2022-10-28T12:34:53;6.97;;;3.30;;
8066;SDS011;4076;48.076;9.118;2022-10-28T12:37:38;6.37;;;3.30;;
8066;SDS011;4076;48.076;9.118;2022-10-28T12:43:08;5.83;;;3.90;;
8066;SDS011;4076;48.076;9.118;2022-10-28T12:45:38;5.87;;;3.53;;
8066;SDS011;4076;48.076;9.118;2022-10-28T12:48:20;11.33;;;5.90;;
8066;SDS011;4076;48.076;9.118;2022-10-28T12:51:13;5.90;;;3.57;;
8066;SDS011;4076;48.076;9.118;2022-10-28T12:56:38;9.50;;;4.10;;
8066;SDS011;4076;48.076;9.118;2022-10-28T13:01:54;6.80;;;4.03;;
8066;SDS011;4076;48.076;9.118;2022-10-28T13:04:25;7.07;;;4.10;;
8066;SDS011;4076;48.076;9.118;2022-10-28T13:21:03;8.70;;;4.80;;
8066;SDS011;4076;48.076;9.118;2022-10-28T13:26:43;7.47;;;3.90;;
8066;SDS011;4076;48.076;9.118;2022-10-28T13:29:23;12.30;;;6.10;;
8066;SDS011;4076;48.076;9.118;2022-10-28T13:31:55;7.23;;;5.53;;
8066;SDS011;4076;48.076;9.118;2022-10-28T13:34:27;5.10;;;3.80;;
8066;SDS011;4076;48.076;9.118;2022-10-28T13:36:58;10.53;;;6.07;;
8066;SDS011;4076;48.076;9.118;2022-10-28T13:44:52;6.87;;;5.60;;
8066;SDS011;4076;48.076;9.118;2022-10-28T13:47:34;6.70;;;3.40;;
8066;SDS011;4076;48.076;9.118;2022-10-28T13:57:49;7.80;;;5.23;;
8066;SDS011;4076;48.076;9.118;2022-10-28T14:08:02;7.60;;;5.07;;
8066;SDS011;4076;48.076;9.118;2022-10-28T14:10:31;20.83;;;15.07;;
8066;SDS011;4076;48.076;9.118;2022-10-28T14:13:05;11.60;;;5.33;;
8066;SDS011;4076;48.076;9.118;2022-10-28T14:15:44;6.40;;;4.80;;
8066;SDS011;4076;48.076;9.118;2022-10-28T14:20:42;9.13;;;5.60;;
8066;SDS011;4076;48.076;9.118;2022-10-28T14:49:54;6.93;;;3.67;;
8066;SDS011;4076;48.076;9.118;2022-10-28T14:52:30;5.73;;;3.33;;
8066;SDS011;4076;48.076;9.118;2022-10-28T14:55:01;7.17;;;2.87;;
8066;SDS011;4076;48.076;9.118;2022-10-28T14:57:31;7.70;;;6.90;;
8066;SDS011;4076;48.076;9.118;2022-10-28T15:00:03;6.57;;;4.10;;
8066;SDS011;4076;48.076;9.118;2022-10-28T15:02:30;9.43;;;4.20;;
8066;SDS011;4076;48.076;9.118;2022-10-28T15:07:38;8.07;;;6.90;;
8066;SDS011;4076;48.076;9.118;2022-10-28T15:10:14;11.97;;;8.93;;
8066;SDS011;4076;48.076;9.118;2022-10-28T15:12:51;9.53;;;7.00;;
8066;SDS011;4076;48.076;9.118;2022-10-28T15:15:20;10.37;;;6.03;;
8066;SDS011;4076;48.076;9.118;2022-10-28T15:17:50;12.47;;;7.97;;
8066;SDS011;4076;48.076;9.118;2022-10-28T15:20:23;12.90;;;6.77;;
8066;SDS011;4076;48.076;9.118;2022-10-28T15:22:51;8.73;;;4.50;;
8066;SDS011;4076;48.076;9.118;2022-10-28T15:25:18;6.20;;;3.50;;
8066;SDS011;4076;48.076;9.118;2022-10-28T15:27:46;7.87;;;7.07;;
8066;SDS011;4076;48.076;9.118;2022-10-28T15:30:16;11.40;;;10.13;;
8066;SDS011;4076;48.076;9.118;2022-10-28T15:32:51;12.67;;;11.07;;
8066;SDS011;4076;48.076;9.118;2022-10-28T15:38:01;12.63;;;7.97;;
8066;SDS011;4076;48.076;9.118;2022-10-28T15:40:47;9.60;;;7.87;;
8066;SDS011;4076;48.076;9.118;2022-10-28T15:43:17;10.13;;;6.53;;
8066;SDS011;4076;48.076;9.118;2022-10-28T15:45:48;14.53;;;7.20;;
8066;SDS011;4076;48.076;9.118;2022-10-28T15:48:18;7.90;;;5.13;;
8066;SDS011;4076;48.076;9.118;2022-10-28T15:51:08;6.90;;;4.67;;
8066;SDS011;4076;48.076;9.118;2022-10-28T15:54:10;7.43;;;5.20;;
8066;SDS011;4076;48.076;9.118;2022-10-28T15:56:54;8.40;;;6.00;;
8066;SDS011;4076;48.076;9.118;2022-10-28T15:59:22;11.97;;;7.77;;
8066;SDS011;4076;48.076;9.118;2022-10-28T16:01:49;6.90;;;5.17;;
8066;SDS011;4076;48.076;9.118;2022-10-28T16:07:06;6.57;;;4.00;;
8066;SDS011;4076;48.076;9.118;2022-10-28T16:09:39;7.33;;;4.67;;
8066;SDS011;4076;48.076;9.118;2022-10-28T16:12:15;7.30;;;4.70;;
8066;SDS011;4076;48.076;9.118;2022-10-28T16:14:45;6.73;;;3.70;;
8066;SDS011;4076;48.076;9.118;2022-10-28T16:17:21;12.37;;;5.63;;
8066;SDS011;4076;48.076;9.118;2022-10-28T16:19:59;8.00;;;4.80;;
8066;SDS011;4076;48.076;9.118;2022-10-28T16:22:37;6.40;;;4.40;;
8066;SDS011;4076;48.076;9.118;2022-10-28T16:25:04;9.90;;;4.13;;
8066;SDS011;4076;48.076;9.118;2022-10-28T16:27:37;9.47;;;5.90;;
8066;SDS011;4076;48.076;9.118;2022-10-28T16:30:03;8.43;;;4.37;;
8066;SDS011;4076;48.076;9.118;2022-10-28T16:32:39;9.13;;;5.23;;
8066;SDS011;4076;48.076;9.118;2022-10-28T16:35:18;6.87;;;4.23;;
8066;SDS011;4076;48.076;9.118;2022-10-28T16:37:45;8.10;;;4.50;;
8066;SDS011;4076;48.076;9.118;2022-10-28T16:40:11;7.03;;;5.20;;
8066;SDS011;4076;48.076;9.118;2022-10-28T16:42:37;8.73;;;4.53;;
8066;SDS011;4076;48.076;9.118;2022-10-28T16:45:05;7.07;;;4.93;;
8066;SDS011;4076;48.076;9.118;2022-10-28T16:47:32;6.90;;;5.37;;
8066;SDS011;4076;48.076;9.118;2022-10-28T16:49:57;7.37;;;5.30;;
8066;SDS011;4076;48.076;9.118;2022-10-28T16:52:26;9.10;;;3.73;;
8066;SDS011;4076;48.076;9.118;2022-10-28T16:54:53;8.73;;;5.50;;
8066;SDS011;4076;48.076;9.118;2022-10-28T16:57:19;7.50;;;4.90;;
8066;SDS011;4076;48.076;9.118;2022-10-28T16:59:45;9.80;;;5.70;;
8066;SDS011;4076;48.076;9.118;2022-10-28T17:02:18;7.37;;;5.80;;
8066;SDS011;4076;48.076;9.118;2022-10-28T17:04:53;8.90;;;5.10;;
8066;SDS011;4076;48.076;9.118;2022-10-28T17:07:19;11.87;;;5.30;;
8066;SDS011;4076;48.076;9.118;2022-10-28T17:09:44;9.43;;;6.10;;
8066;SDS011;4076;48.076;9.118;2022-10-28T17:12:14;12.10;;;8.83;;
8066;SDS011;4076;48.076;9.118;2022-10-28T17:14:41;19.30;;;8.77;;
8066;SDS011;4076;48.076;9.118;2022-10-28T17:17:07;23.07;;;10.80;;
8066;SDS011;4076;48.076;9.118;2022-10-28T17:19:34;12.60;;;9.47;;
8066;SDS011;4076;48.076;9.118;2022-10-28T17:22:01;13.47;;;9.60;;
8066;SDS011;4076;48.076;9.118;2022-10-28T17:24:27;17.27;;;8.90;;
8066;SDS011;4076;48.076;9.118;2022-10-28T17:26:52;10.83;;;6.90;;
8066;SDS011;4076;48.076;9.118;2022-10-28T17:29:18;10.57;;;6.03;;
8066;SDS011;4076;48.076;9.118;2022-10-28T17:31:43;9.43;;;6.40;;
8066;SDS011;4076;48.076;9.118;2022-10-28T17:34:09;8.23;;;4.77;;
8066;SDS011;4076;48.076;9.118;2022-10-28T17:36:35;9.20;;;6.63;;
8066;SDS011;4076;48.076;9.118;2022-10-28T17:39:01;6.50;;;4.70;;
8066;SDS011;4076;48.076;9.118;2022-10-28T17:41:27;7.03;;;4.83;;
8066;SDS011;4076;48.076;9.118;2022-10-28T17:43:53;9.63;;;4.47;;
8066;SDS011;4076;48.076;9.118;2022-10-28T17:46:19;6.67;;;5.20;;
8066;SDS011;4076;48.076;9.118;2022-10-28T17:48:44;7.20;;;4.97;;
8066;SDS011;4076;48.076;9.118;2022-10-28T17:51:10;11.83;;;7.53;;
8066;SDS011;4076;48.076;9.118;2022-10-28T17:53:36;6.77;;;5.47;;
8066;SDS011;4076;48.076;9.118;2022-10-28T17:56:02;10.50;;;7.60;;
8066;SDS011;4076;48.076;9.118;2022-10-28T17:58:29;9.80;;;5.87;;
8066;SDS011;4076;48.076;9.118;2022-10-28T18:00:56;6.27;;;5.40;;
8066;SDS011;4076;48.076;9.118;2022-10-28T18:03:26;6.77;;;4.50;;
8066;SDS011;4076;48.076;9.118;2022-10-28T18:05:53;7.67;;;6.13;;
8066;SDS011;4076;48.076;9.118;2022-10-28T18:08:19;4.83;;;4.30;;
8066;SDS011;4076;48.076;9.118;2022-10-28T18:10:55;8.03;;;5.40;;
8066;SDS011;4076;48.076;9.118;2022-10-28T18:13:31;6.33;;;4.63;;
8066;SDS011;4076;48.076;9.118;2022-10-28T18:18:31;7.80;;;4.47;;
8066;SDS011;4076;48.076;9.118;2022-10-28T18:20:57;7.67;;;5.50;;
8066;SDS011;4076;48.076;9.118;2022-10-28T18:23:23;12.57;;;6.67;;
8066;SDS011;4076;48.076;9.118;2022-10-28T18:25:56;11.17;;;6.27;;
8066;SDS011;4076;48.076;9.118;2022-10-28T18:28:25;11.97;;;8.70;;
8066;SDS011;4076;48.076;9.118;2022-10-28T18:30:53;8.73;;;6.23;;
8066;SDS011;4076;48.076;9.118;2022-10-28T18:33:18;33.87;;;17.93;;
8066;SDS011;4076;48.076;9.118;2022-10-28T18:35:44;30.70;;;21.30;;
8066;SDS011;4076;48.076;9.118;2022-10-28T18:38:10;11.97;;;8.27;;
8066;SDS011;4076;48.076;9.118;2022-10-28T18:40:35;14.87;;;8.10;;
8066;SDS011;4076;48.076;9.118;2022-10-28T18:43:01;17.03;;;11.40;;
8066;SDS011;4076;48.076;9.118;2022-10-28T18:45:27;14.77;;;7.20;;
8066;SDS011;4076;48.076;9.118;2022-10-28T18:47:52;8.40;;;5.90;;
8066;SDS011;4076;48.076;9.118;2022-10-28T18:50:18;9.20;;;5.87;;
8066;SDS011;4076;48.076;9.118;2022-10-28T18:52:43;8.40;;;6.70;;
8066;SDS011;4076;48.076;9.118;2022-10-28T18:55:09;6.70;;;4.83;;
8066;SDS011;4076;48.076;9.118;2022-10-28T18:57:35;11.17;;;5.30;;
8066;SDS011;4076;48.076;9.118;2022-10-28T19:00:00;7.33;;;6.07;;
8066;SDS011;4076;48.076;9.118;2022-10-28T19:02:26;7.37;;;5.00;;
8066;SDS011;4076;48.076;9.118;2022-10-28T19:04:52;8.43;;;4.63;;
8066;SDS011;4076;48.076;9.118;2022-10-28T19:07:18;5.50;;;4.60;;
8066;SDS011;4076;48.076;9.118;2022-10-28T19:09:44;7.30;;;5.30;;
8066;SDS011;4076;48.076;9.118;2022-10-28T19:12:10;8.13;;;4.60;;
8066;SDS011;4076;48.076;9.118;2022-10-28T19:14:36;9.93;;;5.97;;